createdAt,value
2022-12-15T00:02:35.010Z,26.77
2022-12-15T00:05:19.923Z,20.90
2022-12-15T00:08:04.834Z,20.90
2022-12-15T00:10:49.767Z,23.13
2022-12-15T00:13:35.516Z,22.33
2022-12-15T00:16:22.334Z,20.13
2022-12-15T00:19:07.514Z,24.13
2022-12-15T00:21:52.366Z,21.20
2022-12-15T00:24:37.533Z,17.23
2022-12-15T00:27:22.986Z,20.10
2022-12-15T00:30:08.486Z,21.80
2022-12-15T00:32:54.798Z,21.77
2022-12-15T00:35:39.605Z,22.97
2022-12-15T00:38:25.553Z,24.07
2022-12-15T00:40:58.817Z,20.20
2022-12-15T00:43:26.550Z,18.50
2022-12-15T00:46:11.778Z,16.37
2022-12-15T00:48:40.855Z,15.63
2022-12-15T00:51:07.863Z,17.27
2022-12-15T00:53:52.812Z,15.07
2022-12-15T00:56:37.690Z,19.53
2022-12-15T00:59:23.322Z,20.63
2022-12-15T01:02:08.536Z,10.00
2022-12-15T01:04:54.963Z,11.23
2022-12-15T01:07:40.062Z,7.40
2022-12-15T01:10:25.980Z,8.23
2022-12-15T01:13:10.925Z,4.00
2022-12-15T01:15:56.354Z,8.03
2022-12-15T01:18:41.691Z,12.73
2022-12-15T01:21:11.680Z,17.13
2022-12-15T01:23:39.196Z,22.43
2022-12-15T01:26:07.622Z,18.07
2022-12-15T01:28:35.394Z,16.53
2022-12-15T01:31:02.938Z,14.37
2022-12-15T01:33:30.780Z,19.67
2022-12-15T01:35:59.288Z,18.20
2022-12-15T01:38:28.594Z,20.23
2022-12-15T01:40:56.115Z,19.03
2022-12-15T01:43:25.273Z,21.53
2022-12-15T01:45:54.662Z,12.93
2022-12-15T01:48:25.927Z,20.07
2022-12-15T01:50:58.587Z,18.90
2022-12-15T01:53:26.998Z,19.20
2022-12-15T01:55:55.959Z,12.27
2022-12-15T01:58:23.712Z,17.87
2022-12-15T02:00:51.182Z,16.07
2022-12-15T02:03:19.324Z,14.70
2022-12-15T02:05:47.187Z,21.63
2022-12-15T02:08:14.704Z,15.87
2022-12-15T02:10:55.644Z,15.70
2022-12-15T02:13:27.901Z,18.83
2022-12-15T02:15:58.194Z,16.60
2022-12-15T02:18:29.015Z,14.90
2022-12-15T02:20:59.619Z,16.60
2022-12-15T02:23:40.565Z,19.47
2022-12-15T02:26:24.108Z,15.37
2022-12-15T02:28:58.341Z,15.30
2022-12-15T02:31:50.146Z,15.27
2022-12-15T02:34:20.739Z,17.93
2022-12-15T02:36:50.136Z,17.57
2022-12-15T02:39:18.979Z,17.73
2022-12-15T02:41:47.354Z,15.83
2022-12-15T02:44:16.744Z,19.67
2022-12-15T02:46:53.685Z,18.30
2022-12-15T02:49:23.438Z,18.67
2022-12-15T02:51:57.896Z,18.17
2022-12-15T02:54:35.467Z,16.13
2022-12-15T02:57:06.236Z,26.40
2022-12-15T02:59:38.881Z,16.13
2022-12-15T03:02:08.996Z,15.20
2022-12-15T03:04:36.591Z,19.00
2022-12-15T03:07:05.355Z,17.67
2022-12-15T03:09:33.136Z,13.93
2022-12-15T03:12:00.915Z,19.23
2022-12-15T03:14:28.839Z,16.00
2022-12-15T03:16:56.730Z,20.30
2022-12-15T03:19:25.840Z,18.50
2022-12-15T03:21:53.316Z,17.90
2022-12-15T03:24:20.798Z,17.30
2022-12-15T03:26:49.928Z,18.50
2022-12-15T03:29:17.784Z,21.03
2022-12-15T03:31:45.311Z,16.30
2022-12-15T03:34:13.091Z,19.53
2022-12-15T03:36:41.934Z,17.40
2022-12-15T03:39:09.486Z,9.70
2022-12-15T03:41:36.904Z,15.80
2022-12-15T03:44:04.616Z,19.70
2022-12-15T03:46:32.048Z,17.63
2022-12-15T03:48:59.569Z,16.00
2022-12-15T03:51:27.015Z,13.07
2022-12-15T03:53:55.905Z,18.63
2022-12-15T03:56:23.320Z,15.77
2022-12-15T03:58:50.774Z,17.67
2022-12-15T04:01:23.994Z,17.10
2022-12-15T04:03:54.299Z,14.27
2022-12-15T04:06:26.143Z,14.00
2022-12-15T04:08:53.603Z,16.77
2022-12-15T04:11:22.540Z,20.53
2022-12-15T04:13:49.960Z,13.50
2022-12-15T04:16:20.016Z,14.90
2022-12-15T04:19:08.224Z,18.10
2022-12-15T04:21:34.858Z,16.40
2022-12-15T04:24:19.713Z,13.93
2022-12-15T04:27:09.664Z,12.57
2022-12-15T04:29:54.559Z,13.83
2022-12-15T04:32:39.680Z,17.37
2022-12-15T04:35:25.114Z,16.23
2022-12-15T04:38:10.011Z,10.63
2022-12-15T04:40:55.042Z,13.77
2022-12-15T04:43:41.185Z,13.90
2022-12-15T04:46:26.148Z,15.40
2022-12-15T04:49:11.511Z,11.90
2022-12-15T04:51:56.411Z,17.70
2022-12-15T04:54:41.460Z,16.87
2022-12-15T04:57:26.212Z,15.70
2022-12-15T05:00:12.457Z,16.60
2022-12-15T05:02:57.525Z,17.57
2022-12-15T05:05:42.336Z,13.07
2022-12-15T05:08:27.153Z,11.40
2022-12-15T05:11:12.313Z,12.20
2022-12-15T05:13:57.216Z,15.90
2022-12-15T05:16:43.281Z,13.93
2022-12-15T05:19:28.476Z,12.27
2022-12-15T05:22:13.290Z,14.70
2022-12-15T05:24:58.102Z,12.10
2022-12-15T05:27:43.182Z,15.97
2022-12-15T05:30:28.641Z,15.30
2022-12-15T05:32:57.434Z,11.60
2022-12-15T05:35:24.925Z,18.83
2022-12-15T05:37:52.357Z,40.83
2022-12-15T05:40:19.955Z,57.60
2022-12-15T05:42:50.271Z,30.80
2022-12-15T05:45:17.894Z,33.70
2022-12-15T05:47:45.360Z,29.23
2022-12-15T05:50:14.425Z,40.17
2022-12-15T05:52:45.014Z,41.33
2022-12-15T05:55:16.738Z,49.13
2022-12-15T05:57:44.184Z,57.37
2022-12-15T06:00:11.924Z,31.30
2022-12-15T06:02:39.412Z,38.13
2022-12-15T06:05:07.475Z,23.70
2022-12-15T06:07:37.354Z,20.23
2022-12-15T06:10:05.216Z,24.03
2022-12-15T06:12:32.663Z,25.60
2022-12-15T06:15:00.182Z,52.03
2022-12-15T06:17:27.681Z,20.73
2022-12-15T06:19:55.123Z,62.50
2022-12-15T06:22:22.561Z,91.00
2022-12-15T06:24:51.340Z,37.10
2022-12-15T06:27:19.830Z,22.40
2022-12-15T06:29:47.286Z,17.47
2022-12-15T06:32:14.719Z,15.13
2022-12-15T06:34:42.348Z,11.70
2022-12-15T06:37:09.895Z,12.13
2022-12-15T06:39:37.595Z,11.57
2022-12-15T06:42:06.544Z,4.80
2022-12-15T06:44:33.991Z,10.40
2022-12-15T06:47:01.563Z,10.03
2022-12-15T06:49:29.122Z,10.13
2022-12-15T06:51:56.580Z,16.43
2022-12-15T06:54:24.014Z,14.50
2022-12-15T06:56:51.517Z,15.80
2022-12-15T06:59:20.356Z,13.03
2022-12-15T07:01:47.932Z,10.83
2022-12-15T07:04:15.776Z,11.77
2022-12-15T07:06:43.351Z,14.50
2022-12-15T07:09:13.560Z,13.37
2022-12-15T07:11:41.414Z,8.47
2022-12-15T07:14:09.859Z,12.47
2022-12-15T07:16:38.790Z,14.10
2022-12-15T07:19:06.686Z,11.83
2022-12-15T07:21:34.252Z,10.83
2022-12-15T07:24:02.610Z,10.67
2022-12-15T07:26:30.364Z,9.20
2022-12-15T07:28:57.845Z,11.43
2022-12-15T07:31:25.400Z,12.20
2022-12-15T07:33:54.887Z,9.30
2022-12-15T07:36:23.043Z,8.57
2022-12-15T07:38:51.624Z,8.40
2022-12-15T07:41:19.837Z,10.50
2022-12-15T07:43:47.716Z,12.93
2022-12-15T07:46:15.715Z,10.93
2022-12-15T07:48:43.301Z,12.17
2022-12-15T07:51:19.108Z,9.33
2022-12-15T07:53:47.251Z,10.50
2022-12-15T07:56:15.411Z,10.30
2022-12-15T07:58:43.433Z,10.23
2022-12-15T08:01:12.223Z,10.20
2022-12-15T08:03:42.404Z,8.43
2022-12-15T08:06:11.107Z,9.93
2022-12-15T08:08:40.062Z,11.30
2022-12-15T08:11:07.840Z,8.70
2022-12-15T08:16:22.830Z,10.03
2022-12-15T08:18:50.298Z,10.53
2022-12-15T08:21:19.432Z,13.03
2022-12-15T08:23:48.264Z,15.93
2022-12-15T08:26:16.833Z,12.63
2022-12-15T08:28:44.869Z,12.53
2022-12-15T08:31:14.099Z,11.10
2022-12-15T08:33:41.815Z,10.60
2022-12-15T08:36:11.188Z,10.20
2022-12-15T08:38:39.153Z,10.00
2022-12-15T08:41:12.123Z,12.07
2022-12-15T08:43:47.676Z,8.47
2022-12-15T08:46:16.863Z,7.47
2022-12-15T08:48:44.527Z,13.03
2022-12-15T08:51:12.400Z,10.67
2022-12-15T08:53:42.415Z,8.03
2022-12-15T08:56:12.867Z,10.10
2022-12-15T08:58:40.809Z,15.87
2022-12-15T09:01:09.927Z,18.63
2022-12-15T09:03:37.684Z,8.77
2022-12-15T09:06:05.623Z,8.77
2022-12-15T09:08:33.323Z,9.87
2022-12-15T09:11:01.003Z,7.83
2022-12-15T09:13:30.408Z,9.53
2022-12-15T09:16:13.727Z,12.47
2022-12-15T09:18:43.224Z,7.60
2022-12-15T09:21:11.138Z,9.47
2022-12-15T09:23:39.189Z,10.33
2022-12-15T09:26:07.849Z,9.10
2022-12-15T09:28:37.676Z,15.83
2022-12-15T09:31:05.252Z,32.93
2022-12-15T09:33:33.031Z,24.17
2022-12-15T09:36:01.302Z,11.90
2022-12-15T09:38:28.870Z,10.87
2022-12-15T09:40:56.369Z,11.27
2022-12-15T09:43:46.477Z,8.33
2022-12-15T09:46:19.100Z,11.13
2022-12-15T09:48:47.844Z,12.13
2022-12-15T09:51:17.458Z,18.57
2022-12-15T09:53:54.744Z,8.00
2022-12-15T09:56:28.405Z,8.27
2022-12-15T09:58:59.427Z,9.37
2022-12-15T10:01:33.471Z,10.73
2022-12-15T10:04:06.069Z,9.57
2022-12-15T10:06:34.762Z,11.23
2022-12-15T10:09:03.622Z,8.70
2022-12-15T10:11:41.333Z,7.47
2022-12-15T10:14:14.218Z,8.50
2022-12-15T10:16:50.233Z,9.73
2022-12-15T10:19:20.967Z,7.90
2022-12-15T10:25:08.687Z,5.93
2022-12-15T10:27:30.213Z,5.37
2022-12-15T10:30:00.885Z,7.40
2022-12-15T10:32:39.323Z,7.93
2022-12-15T10:35:15.163Z,10.57
2022-12-15T10:37:43.035Z,4.23
2022-12-15T10:40:15.149Z,8.93
2022-12-15T10:42:46.607Z,10.03
2022-12-15T10:45:35.522Z,7.77
2022-12-15T10:48:06.693Z,9.57
2022-12-15T10:50:34.960Z,8.27
2022-12-15T10:53:07.448Z,10.60
2022-12-15T10:55:38.041Z,8.37
2022-12-15T10:58:06.227Z,6.10
2022-12-15T11:00:34.232Z,9.27
2022-12-15T11:03:01.773Z,7.00
2022-12-15T11:05:30.921Z,10.27
2022-12-15T11:08:15.521Z,10.47
2022-12-15T11:11:08.066Z,8.30
2022-12-15T11:13:35.732Z,12.40
2022-12-15T11:16:11.921Z,7.20
2022-12-15T11:18:42.761Z,8.03
2022-12-15T11:21:12.880Z,9.20
2022-12-15T11:26:44.736Z,7.77
2022-12-15T11:29:19.221Z,9.40
2022-12-15T11:31:47.151Z,6.37
2022-12-15T11:34:17.344Z,8.03
2022-12-15T11:36:55.117Z,5.80
2022-12-15T11:39:30.147Z,8.47
2022-12-15T11:42:00.573Z,6.80
2022-12-15T11:44:29.008Z,10.23
2022-12-15T11:47:00.489Z,6.57
2022-12-15T11:49:40.803Z,9.30
2022-12-15T11:52:13.817Z,9.13
2022-12-15T11:54:45.820Z,8.37
2022-12-15T11:57:21.626Z,8.47
2022-12-15T11:59:54.548Z,6.43
2022-12-15T12:02:35.729Z,8.20
2022-12-15T12:05:15.374Z,9.03
2022-12-15T12:07:45.749Z,5.70
2022-12-15T12:10:20.802Z,4.30
2022-12-15T12:12:52.064Z,7.50
2022-12-15T12:15:26.040Z,6.93
2022-12-15T12:17:54.136Z,6.10
2022-12-15T12:20:23.072Z,7.07
2022-12-15T12:22:55.478Z,6.73
2022-12-15T12:25:23.513Z,6.20
2022-12-15T12:27:55.012Z,8.20
2022-12-15T12:30:23.749Z,7.07
2022-12-15T12:32:54.930Z,6.23
2022-12-15T12:35:31.212Z,7.07
2022-12-15T12:38:03.872Z,9.07
2022-12-15T12:40:37.683Z,9.87
2022-12-15T12:43:11.902Z,7.97
2022-12-15T12:45:46.176Z,8.87
2022-12-15T12:48:23.087Z,7.93
2022-12-15T12:50:50.755Z,8.23
2022-12-15T12:53:28.364Z,8.37
2022-12-15T12:55:55.943Z,9.17
2022-12-15T12:58:31.647Z,8.67
2022-12-15T13:01:21.083Z,7.83
2022-12-15T13:04:05.435Z,7.07
2022-12-15T13:06:47.746Z,9.80
2022-12-15T13:09:24.103Z,8.80
2022-12-15T13:12:14.857Z,9.23
2022-12-15T13:14:51.757Z,10.00
2022-12-15T13:17:30.151Z,11.63
2022-12-15T13:20:30.905Z,9.60
2022-12-15T13:23:13.381Z,9.60
2022-12-15T13:25:48.583Z,8.13
2022-12-15T13:28:25.478Z,7.77
2022-12-15T13:31:11.631Z,9.80
2022-12-15T13:33:45.569Z,8.27
2022-12-15T13:36:13.060Z,8.37
2022-12-15T13:38:53.795Z,7.17
2022-12-15T13:41:25.520Z,15.77
2022-12-15T13:43:54.664Z,15.20
2022-12-15T13:46:24.360Z,13.60
2022-12-15T13:48:54.180Z,10.20
2022-12-15T13:51:28.519Z,11.30
2022-12-15T13:53:57.401Z,11.10
2022-12-15T13:56:29.399Z,10.33
2022-12-15T13:59:00.428Z,7.67
2022-12-15T14:01:32.271Z,7.53
2022-12-15T14:04:04.851Z,9.57
2022-12-15T14:06:35.720Z,8.97
2022-12-15T14:09:03.482Z,9.30
2022-12-15T14:14:23.584Z,9.93
2022-12-15T14:16:55.770Z,13.23
2022-12-15T14:19:23.181Z,12.33
2022-12-15T14:21:51.845Z,10.20
2022-12-15T14:24:41.998Z,6.97
2022-12-15T14:27:11.131Z,11.20
2022-12-15T14:29:38.586Z,7.17
2022-12-15T14:32:06.469Z,16.37
2022-12-15T14:34:36.818Z,13.27
2022-12-15T14:37:04.841Z,15.73
2022-12-15T14:39:34.642Z,14.87
2022-12-15T14:42:02.802Z,15.90
2022-12-15T14:44:38.350Z,11.80
2022-12-15T14:47:23.291Z,15.27
2022-12-15T14:49:51.339Z,12.13
2022-12-15T14:52:24.848Z,10.20
2022-12-15T14:54:57.641Z,11.10
2022-12-15T14:57:26.326Z,15.90
2022-12-15T14:59:55.741Z,13.07
2022-12-15T15:02:24.943Z,12.10
2022-12-15T15:03:04.321Z,7.13
2022-12-15T15:03:12.026Z,7.80
2022-12-15T15:05:02.814Z,14.90
2022-12-15T15:07:30.967Z,11.87
2022-12-15T15:09:58.852Z,12.03
2022-12-15T15:12:29.008Z,14.63
2022-12-15T15:15:00.996Z,22.20
2022-12-15T15:17:31.752Z,17.13
2022-12-15T15:20:00.996Z,15.93
2022-12-15T15:22:32.232Z,11.97
2022-12-15T15:24:59.679Z,11.40
2022-12-15T15:27:32.647Z,13.07
2022-12-15T15:30:19.524Z,11.47
2022-12-15T15:32:50.746Z,11.90
2022-12-15T15:35:18.936Z,12.87
2022-12-15T15:37:46.492Z,18.00
2022-12-15T15:40:15.742Z,10.57
2022-12-15T15:42:43.214Z,10.10
2022-12-15T15:45:13.476Z,13.63
2022-12-15T15:47:43.035Z,12.33
2022-12-15T15:50:13.573Z,15.37
2022-12-15T15:52:41.218Z,14.63
2022-12-15T15:55:10.298Z,13.23
2022-12-15T15:57:37.720Z,9.10
2022-12-15T16:00:09.180Z,10.27
2022-12-15T16:02:36.938Z,13.47
2022-12-15T16:05:06.450Z,12.93
2022-12-15T16:07:34.000Z,11.47
2022-12-15T16:10:01.514Z,13.07
2022-12-15T16:12:30.068Z,10.87
2022-12-15T16:14:57.914Z,10.63
2022-12-15T16:17:25.449Z,8.43
2022-12-15T16:19:52.869Z,11.37
2022-12-15T16:22:22.433Z,10.57
2022-12-15T16:24:49.885Z,10.43
2022-12-15T16:27:17.356Z,13.33
2022-12-15T16:29:44.780Z,12.43
2022-12-15T16:32:13.363Z,9.80
2022-12-15T16:34:41.844Z,9.10
2022-12-15T16:37:15.375Z,11.87
2022-12-15T16:39:44.285Z,12.37
2022-12-15T16:42:12.662Z,13.60
2022-12-15T16:44:40.071Z,16.97
2022-12-15T16:47:07.476Z,9.87
2022-12-15T16:49:40.075Z,6.43
2022-12-15T16:52:15.334Z,9.73
2022-12-15T16:54:45.409Z,13.00
2022-12-15T16:57:12.854Z,7.40
2022-12-15T16:59:40.260Z,8.30
2022-12-15T17:02:20.686Z,7.20
2022-12-15T17:04:48.352Z,7.67
2022-12-15T17:07:19.974Z,9.10
2022-12-15T17:09:49.806Z,8.13
2022-12-15T17:12:18.141Z,9.27
2022-12-15T17:14:45.908Z,9.50
2022-12-15T17:17:14.887Z,9.50
2022-12-15T17:19:57.947Z,8.57
2022-12-15T17:22:29.964Z,12.30
2022-12-15T17:24:58.881Z,10.77
2022-12-15T17:27:28.464Z,13.13
2022-12-15T17:29:56.716Z,9.43
2022-12-15T17:32:24.154Z,15.57
2022-12-15T17:34:51.958Z,13.47
2022-12-15T17:37:19.428Z,18.17
2022-12-15T17:39:50.902Z,26.87
2022-12-15T17:42:21.983Z,30.70
2022-12-15T17:44:51.852Z,28.70
2022-12-15T17:47:19.488Z,15.13
2022-12-15T17:49:47.234Z,18.53
2022-12-15T17:52:19.978Z,18.63
2022-12-15T17:54:47.400Z,19.00
2022-12-15T17:57:14.839Z,20.43
2022-12-15T17:59:43.790Z,29.33
2022-12-15T18:02:12.894Z,30.47
2022-12-15T18:04:40.892Z,24.80
2022-12-15T18:07:12.845Z,13.33
2022-12-15T18:09:40.314Z,9.23
2022-12-15T18:12:11.906Z,9.87
2022-12-15T18:14:39.367Z,9.97
2022-12-15T18:17:09.324Z,21.67
2022-12-15T18:19:36.722Z,30.47
2022-12-15T18:22:04.381Z,38.97
2022-12-15T18:24:31.848Z,41.17
2022-12-15T18:26:59.256Z,40.50
2022-12-15T18:29:26.671Z,48.37
2022-12-15T18:31:55.148Z,36.57
2022-12-15T18:34:23.992Z,50.60
2022-12-15T18:36:51.509Z,52.67
2022-12-15T18:39:21.109Z,52.57
2022-12-15T18:41:49.020Z,45.23
2022-12-15T18:44:20.047Z,50.80
2022-12-15T18:46:48.216Z,45.13
2022-12-15T18:49:15.912Z,44.70
2022-12-15T18:51:46.274Z,45.73
2022-12-15T18:54:16.686Z,34.77
2022-12-15T18:56:45.192Z,27.80
2022-12-15T18:59:15.593Z,32.10
2022-12-15T19:01:43.653Z,37.67
2022-12-15T19:04:11.314Z,48.97
2022-12-15T19:06:40.431Z,39.07
2022-12-15T19:09:14.423Z,38.30
2022-12-15T19:12:01.894Z,35.27
2022-12-15T19:14:41.442Z,41.67
2022-12-15T19:17:27.259Z,48.10
2022-12-15T19:20:12.109Z,45.13
2022-12-15T19:22:39.775Z,40.27
2022-12-15T19:25:10.832Z,45.00
2022-12-15T19:27:38.245Z,39.60
2022-12-15T19:30:06.926Z,39.97
2022-12-15T19:32:34.334Z,42.93
2022-12-15T19:35:01.798Z,44.40
2022-12-15T19:37:30.670Z,50.47
2022-12-15T19:39:59.393Z,42.50
2022-12-15T19:42:29.495Z,43.57
2022-12-15T19:44:56.898Z,33.37
2022-12-15T19:47:24.306Z,37.80
2022-12-15T19:49:52.754Z,31.90
2022-12-15T19:52:22.608Z,45.80
2022-12-15T19:54:50.656Z,44.50
2022-12-15T19:57:19.372Z,45.13
2022-12-15T19:59:48.915Z,21.67
2022-12-15T20:02:17.424Z,12.57
2022-12-15T20:04:44.931Z,12.23
2022-12-15T20:07:16.723Z,14.30
2022-12-15T20:09:44.685Z,9.17
2022-12-15T20:12:16.742Z,8.13
2022-12-15T20:14:44.318Z,12.40
2022-12-15T20:17:13.185Z,6.57
2022-12-15T20:19:40.687Z,5.57
2022-12-15T20:22:10.944Z,6.83
2022-12-15T20:24:38.334Z,5.93
2022-12-15T20:27:11.614Z,8.13
2022-12-15T20:29:39.483Z,12.67
2022-12-15T20:32:08.283Z,21.23
2022-12-15T20:34:37.290Z,18.30
2022-12-15T20:37:05.270Z,19.73
2022-12-15T20:39:32.787Z,13.90
2022-12-15T20:42:00.291Z,18.60
2022-12-15T20:44:27.714Z,21.30
2022-12-15T20:46:55.481Z,15.93
2022-12-15T20:49:23.330Z,17.60
2022-12-15T20:51:52.257Z,20.60
2022-12-15T20:54:21.620Z,26.43
2022-12-15T20:56:49.612Z,26.73
2022-12-15T20:59:17.693Z,27.83
2022-12-15T21:01:46.413Z,22.07
2022-12-15T21:04:20.600Z,28.93
2022-12-15T21:06:54.268Z,25.73
2022-12-15T21:09:24.414Z,28.50
2022-12-15T21:11:53.971Z,27.43
2022-12-15T21:14:23.213Z,31.37
2022-12-15T21:16:51.049Z,29.83
2022-12-15T21:19:21.330Z,35.90
2022-12-15T21:21:52.019Z,23.37
2022-12-15T21:24:20.661Z,28.17
2022-12-15T21:26:49.602Z,25.70
2022-12-15T21:29:19.123Z,23.00
2022-12-15T21:31:46.803Z,32.10
2022-12-15T21:34:14.238Z,31.13
2022-12-15T21:36:43.545Z,26.60
2022-12-15T21:39:13.618Z,25.73
2022-12-15T21:41:42.389Z,27.53
2022-12-15T21:44:13.678Z,24.60
2022-12-15T21:46:41.201Z,19.50
2022-12-15T21:49:15.073Z,16.93
2022-12-15T21:51:43.548Z,21.43
2022-12-15T21:54:15.961Z,26.97
2022-12-15T21:56:43.603Z,23.23
2022-12-15T21:59:13.839Z,19.13
2022-12-15T22:01:41.666Z,12.77
2022-12-15T22:04:15.667Z,18.63
2022-12-15T22:06:48.677Z,17.70
2022-12-15T22:09:18.385Z,18.40
2022-12-15T22:11:47.458Z,14.87
2022-12-15T22:14:20.564Z,19.83
2022-12-15T22:16:47.975Z,19.93
2022-12-15T22:19:15.396Z,18.40
2022-12-15T22:21:43.153Z,17.50
2022-12-15T22:24:10.844Z,16.47
2022-12-15T22:26:39.287Z,17.20
2022-12-15T22:29:13.006Z,16.77
2022-12-15T22:31:41.976Z,16.23
2022-12-15T22:34:13.953Z,16.97
2022-12-15T22:36:41.394Z,15.03
2022-12-15T22:39:10.958Z,16.00
2022-12-15T22:41:39.899Z,19.20
2022-12-15T22:44:12.919Z,14.47
2022-12-15T22:46:42.002Z,10.53
2022-12-15T22:49:10.734Z,15.80
2022-12-15T22:51:38.133Z,13.97
2022-12-15T22:54:11.764Z,16.13
2022-12-15T22:56:40.390Z,15.17
2022-12-15T22:59:11.516Z,17.17
2022-12-15T23:01:38.950Z,18.40
2022-12-15T23:04:07.894Z,14.87
2022-12-15T23:06:35.772Z,11.63
2022-12-15T23:09:03.664Z,16.03
2022-12-15T23:11:39.007Z,18.37
2022-12-15T23:14:07.108Z,18.73
2022-12-15T23:16:34.125Z,17.07
2022-12-15T23:19:01.758Z,14.40
2022-12-15T23:21:30.581Z,13.53
2022-12-15T23:23:58.778Z,10.93
2022-12-15T23:26:26.776Z,9.50
2022-12-15T23:28:55.215Z,12.70
2022-12-15T23:31:22.900Z,11.43
2022-12-15T23:33:52.195Z,11.60
2022-12-15T23:36:19.978Z,15.93
2022-12-15T23:38:48.873Z,15.50
2022-12-15T23:41:17.607Z,17.57
2022-12-15T23:43:45.284Z,16.23
2022-12-15T23:46:13.006Z,16.87
2022-12-15T23:48:41.514Z,20.73
2022-12-15T23:51:09.849Z,18.37
2022-12-15T23:53:37.470Z,19.63
2022-12-15T23:56:07.440Z,17.80
2022-12-15T23:58:35.588Z,16.83
